sensor_id;sensor_type;location;lat;lon;timestamp;P1;durP1;ratioP1;P2;durP2;ratioP2
35993;SDS011;22066;54.274;18.578;2023-05-07T00:00:58;16.53;;;8.43;;
35993;SDS011;22066;54.274;18.578;2023-05-07T00:03:24;22.23;;;8.10;;
35993;SDS011;22066;54.274;18.578;2023-05-07T00:05:51;16.50;;;7.73;;
35993;SDS011;22066;54.274;18.578;2023-05-07T00:08:18;20.63;;;8.60;;
35993;SDS011;22066;54.274;18.578;2023-05-07T00:10:44;16.17;;;8.27;;
35993;SDS011;22066;54.274;18.578;2023-05-07T00:13:11;19.40;;;7.27;;
35993;SDS011;22066;54.274;18.578;2023-05-07T00:15:37;18.33;;;7.40;;
35993;SDS011;22066;54.274;18.578;2023-05-07T00:18:03;13.43;;;7.10;;
35993;SDS011;22066;54.274;18.578;2023-05-07T00:20:29;16.33;;;7.10;;
35993;SDS011;22066;54.274;18.578;2023-05-07T00:22:55;17.20;;;7.73;;
35993;SDS011;22066;54.274;18.578;2023-05-07T00:25:21;15.03;;;7.93;;
35993;SDS011;22066;54.274;18.578;2023-05-07T00:27:47;17.47;;;7.37;;
35993;SDS011;22066;54.274;18.578;2023-05-07T00:30:13;11.80;;;6.47;;
35993;SDS011;22066;54.274;18.578;2023-05-07T00:32:39;16.63;;;6.87;;
35993;SDS011;22066;54.274;18.578;2023-05-07T00:35:06;16.53;;;7.63;;
35993;SDS011;22066;54.274;18.578;2023-05-07T00:37:32;16.77;;;7.57;;
35993;SDS011;22066;54.274;18.578;2023-05-07T00:39:58;15.97;;;6.80;;
35993;SDS011;22066;54.274;18.578;2023-05-07T00:42:24;16.67;;;7.03;;
35993;SDS011;22066;54.274;18.578;2023-05-07T00:44:50;18.10;;;7.67;;
35993;SDS011;22066;54.274;18.578;2023-05-07T00:47:16;12.57;;;6.63;;
35993;SDS011;22066;54.274;18.578;2023-05-07T00:49:43;15.40;;;7.00;;
35993;SDS011;22066;54.274;18.578;2023-05-07T00:52:13;17.13;;;7.63;;
35993;SDS011;22066;54.274;18.578;2023-05-07T00:54:40;19.07;;;6.97;;
35993;SDS011;22066;54.274;18.578;2023-05-07T00:57:06;16.73;;;7.27;;
35993;SDS011;22066;54.274;18.578;2023-05-07T00:59:32;22.23;;;7.73;;
35993;SDS011;22066;54.274;18.578;2023-05-07T01:01:58;17.03;;;7.67;;
35993;SDS011;22066;54.274;18.578;2023-05-07T01:04:25;15.10;;;6.80;;
35993;SDS011;22066;54.274;18.578;2023-05-07T01:06:52;21.90;;;7.57;;
35993;SDS011;22066;54.274;18.578;2023-05-07T01:09:19;16.20;;;7.60;;
35993;SDS011;22066;54.274;18.578;2023-05-07T01:11:45;16.13;;;7.20;;
35993;SDS011;22066;54.274;18.578;2023-05-07T01:14:12;16.47;;;7.73;;
35993;SDS011;22066;54.274;18.578;2023-05-07T01:16:38;16.27;;;7.67;;
35993;SDS011;22066;54.274;18.578;2023-05-07T01:19:05;16.30;;;6.80;;
35993;SDS011;22066;54.274;18.578;2023-05-07T01:21:33;15.67;;;8.03;;
35993;SDS011;22066;54.274;18.578;2023-05-07T01:23:59;16.67;;;7.07;;
35993;SDS011;22066;54.274;18.578;2023-05-07T01:26:26;19.37;;;7.43;;
35993;SDS011;22066;54.274;18.578;2023-05-07T01:28:52;16.63;;;7.17;;
35993;SDS011;22066;54.274;18.578;2023-05-07T01:31:18;13.63;;;7.53;;
35993;SDS011;22066;54.274;18.578;2023-05-07T01:33:44;15.30;;;7.07;;
35993;SDS011;22066;54.274;18.578;2023-05-07T01:36:11;16.43;;;6.83;;
35993;SDS011;22066;54.274;18.578;2023-05-07T01:38:41;14.27;;;7.50;;
35993;SDS011;22066;54.274;18.578;2023-05-07T01:41:07;14.60;;;6.90;;
35993;SDS011;22066;54.274;18.578;2023-05-07T01:43:33;18.23;;;7.23;;
35993;SDS011;22066;54.274;18.578;2023-05-07T01:46:00;17.93;;;6.53;;
35993;SDS011;22066;54.274;18.578;2023-05-07T01:48:27;14.27;;;6.60;;
35993;SDS011;22066;54.274;18.578;2023-05-07T01:50:54;15.73;;;7.53;;
35993;SDS011;22066;54.274;18.578;2023-05-07T01:53:20;15.60;;;7.07;;
35993;SDS011;22066;54.274;18.578;2023-05-07T01:55:46;16.73;;;7.33;;
35993;SDS011;22066;54.274;18.578;2023-05-07T01:58:12;20.13;;;6.77;;
35993;SDS011;22066;54.274;18.578;2023-05-07T02:00:39;12.17;;;5.97;;
35993;SDS011;22066;54.274;18.578;2023-05-07T02:03:05;15.13;;;5.83;;
35993;SDS011;22066;54.274;18.578;2023-05-07T02:05:31;15.63;;;6.93;;
35993;SDS011;22066;54.274;18.578;2023-05-07T02:07:57;13.03;;;6.43;;
35993;SDS011;22066;54.274;18.578;2023-05-07T02:10:23;12.23;;;6.27;;
35993;SDS011;22066;54.274;18.578;2023-05-07T02:12:49;19.17;;;7.30;;
35993;SDS011;22066;54.274;18.578;2023-05-07T02:15:15;14.60;;;6.57;;
35993;SDS011;22066;54.274;18.578;2023-05-07T02:17:57;11.43;;;6.17;;
35993;SDS011;22066;54.274;18.578;2023-05-07T02:20:24;15.30;;;6.60;;
35993;SDS011;22066;54.274;18.578;2023-05-07T02:22:50;15.53;;;6.77;;
35993;SDS011;22066;54.274;18.578;2023-05-07T02:25:17;16.30;;;6.90;;
35993;SDS011;22066;54.274;18.578;2023-05-07T02:27:43;15.23;;;6.57;;
35993;SDS011;22066;54.274;18.578;2023-05-07T02:33:12;15.40;;;5.80;;
35993;SDS011;22066;54.274;18.578;2023-05-07T02:35:38;18.43;;;6.53;;
35993;SDS011;22066;54.274;18.578;2023-05-07T02:38:05;15.20;;;7.03;;
35993;SDS011;22066;54.274;18.578;2023-05-07T02:40:31;14.50;;;6.10;;
35993;SDS011;22066;54.274;18.578;2023-05-07T02:42:58;17.23;;;6.93;;
35993;SDS011;22066;54.274;18.578;2023-05-07T02:45:25;16.70;;;6.53;;
35993;SDS011;22066;54.274;18.578;2023-05-07T02:47:51;14.60;;;6.50;;
35993;SDS011;22066;54.274;18.578;2023-05-07T02:50:17;15.30;;;6.27;;
35993;SDS011;22066;54.274;18.578;2023-05-07T02:52:43;15.43;;;6.47;;
35993;SDS011;22066;54.274;18.578;2023-05-07T02:55:09;16.27;;;6.27;;
35993;SDS011;22066;54.274;18.578;2023-05-07T02:57:35;13.77;;;5.97;;
35993;SDS011;22066;54.274;18.578;2023-05-07T03:00:10;14.80;;;6.90;;
35993;SDS011;22066;54.274;18.578;2023-05-07T03:02:36;14.33;;;6.50;;
35993;SDS011;22066;54.274;18.578;2023-05-07T03:05:02;16.53;;;7.03;;
35993;SDS011;22066;54.274;18.578;2023-05-07T03:07:28;12.40;;;6.50;;
35993;SDS011;22066;54.274;18.578;2023-05-07T03:09:54;13.57;;;5.93;;
35993;SDS011;22066;54.274;18.578;2023-05-07T03:12:20;13.13;;;5.80;;
35993;SDS011;22066;54.274;18.578;2023-05-07T03:14:46;12.40;;;6.00;;
35993;SDS011;22066;54.274;18.578;2023-05-07T03:17:12;14.57;;;6.47;;
35993;SDS011;22066;54.274;18.578;2023-05-07T03:19:38;14.93;;;6.73;;
35993;SDS011;22066;54.274;18.578;2023-05-07T03:22:04;12.30;;;6.13;;
35993;SDS011;22066;54.274;18.578;2023-05-07T03:24:30;12.40;;;5.77;;
35993;SDS011;22066;54.274;18.578;2023-05-07T03:26:56;11.47;;;5.67;;
35993;SDS011;22066;54.274;18.578;2023-05-07T03:29:23;13.07;;;5.57;;
35993;SDS011;22066;54.274;18.578;2023-05-07T03:31:49;18.53;;;5.80;;
35993;SDS011;22066;54.274;18.578;2023-05-07T03:34:15;14.93;;;5.87;;
35993;SDS011;22066;54.274;18.578;2023-05-07T03:36:42;15.77;;;5.53;;
35993;SDS011;22066;54.274;18.578;2023-05-07T03:39:08;14.07;;;5.87;;
35993;SDS011;22066;54.274;18.578;2023-05-07T03:41:34;11.77;;;5.47;;
35993;SDS011;22066;54.274;18.578;2023-05-07T03:44:00;14.67;;;6.20;;
35993;SDS011;22066;54.274;18.578;2023-05-07T03:46:26;16.93;;;5.70;;
35993;SDS011;22066;54.274;18.578;2023-05-07T03:48:53;17.30;;;5.30;;
35993;SDS011;22066;54.274;18.578;2023-05-07T03:51:19;11.57;;;5.50;;
35993;SDS011;22066;54.274;18.578;2023-05-07T03:53:45;15.03;;;5.73;;
35993;SDS011;22066;54.274;18.578;2023-05-07T03:56:11;17.97;;;7.37;;
35993;SDS011;22066;54.274;18.578;2023-05-07T03:58:37;15.63;;;7.73;;
35993;SDS011;22066;54.274;18.578;2023-05-07T04:01:03;11.40;;;6.20;;
35993;SDS011;22066;54.274;18.578;2023-05-07T04:03:29;12.33;;;6.97;;
35993;SDS011;22066;54.274;18.578;2023-05-07T04:05:55;13.07;;;6.20;;
35993;SDS011;22066;54.274;18.578;2023-05-07T04:08:21;14.97;;;6.33;;
35993;SDS011;22066;54.274;18.578;2023-05-07T04:10:47;17.17;;;6.77;;
35993;SDS011;22066;54.274;18.578;2023-05-07T04:13:13;15.57;;;7.67;;
35993;SDS011;22066;54.274;18.578;2023-05-07T04:15:39;17.13;;;7.37;;
35993;SDS011;22066;54.274;18.578;2023-05-07T04:18:05;23.57;;;8.07;;
35993;SDS011;22066;54.274;18.578;2023-05-07T04:20:33;22.47;;;9.63;;
35993;SDS011;22066;54.274;18.578;2023-05-07T04:23:01;22.27;;;10.83;;
35993;SDS011;22066;54.274;18.578;2023-05-07T04:25:27;26.50;;;10.93;;
35993;SDS011;22066;54.274;18.578;2023-05-07T04:27:53;30.83;;;12.13;;
35993;SDS011;22066;54.274;18.578;2023-05-07T04:30:19;40.13;;;13.73;;
35993;SDS011;22066;54.274;18.578;2023-05-07T04:32:45;40.37;;;14.87;;
35993;SDS011;22066;54.274;18.578;2023-05-07T04:35:13;49.43;;;16.73;;
35993;SDS011;22066;54.274;18.578;2023-05-07T04:37:39;44.07;;;16.53;;
35993;SDS011;22066;54.274;18.578;2023-05-07T04:40:05;46.43;;;17.50;;
35993;SDS011;22066;54.274;18.578;2023-05-07T04:42:32;31.30;;;13.90;;
35993;SDS011;22066;54.274;18.578;2023-05-07T04:44:58;45.67;;;17.17;;
35993;SDS011;22066;54.274;18.578;2023-05-07T04:47:25;57.30;;;21.53;;
35993;SDS011;22066;54.274;18.578;2023-05-07T04:49:51;53.23;;;20.90;;
35993;SDS011;22066;54.274;18.578;2023-05-07T04:52:17;40.13;;;17.17;;
35993;SDS011;22066;54.274;18.578;2023-05-07T04:54:43;33.83;;;13.83;;
35993;SDS011;22066;54.274;18.578;2023-05-07T04:57:09;22.67;;;10.80;;
35993;SDS011;22066;54.274;18.578;2023-05-07T04:59:35;22.07;;;8.87;;
35993;SDS011;22066;54.274;18.578;2023-05-07T05:02:01;17.73;;;8.37;;
35993;SDS011;22066;54.274;18.578;2023-05-07T05:04:29;16.20;;;7.20;;
35993;SDS011;22066;54.274;18.578;2023-05-07T05:06:55;11.20;;;6.20;;
35993;SDS011;22066;54.274;18.578;2023-05-07T05:09:21;16.20;;;7.13;;
35993;SDS011;22066;54.274;18.578;2023-05-07T05:11:47;14.73;;;7.53;;
35993;SDS011;22066;54.274;18.578;2023-05-07T05:14:13;15.50;;;7.40;;
35993;SDS011;22066;54.274;18.578;2023-05-07T05:16:39;14.10;;;6.70;;
35993;SDS011;22066;54.274;18.578;2023-05-07T05:19:05;14.93;;;7.25;;
35993;SDS011;22066;54.274;18.578;2023-05-07T05:21:31;16.13;;;8.48;;
35993;SDS011;22066;54.274;18.578;2023-05-07T05:23:57;19.75;;;8.50;;
35993;SDS011;22066;54.274;18.578;2023-05-07T05:26:24;11.57;;;6.03;;
35993;SDS011;22066;54.274;18.578;2023-05-07T05:28:50;16.17;;;6.32;;
35993;SDS011;22066;54.274;18.578;2023-05-07T05:31:16;13.38;;;7.20;;
35993;SDS011;22066;54.274;18.578;2023-05-07T05:33:42;15.38;;;8.18;;
35993;SDS011;22066;54.274;18.578;2023-05-07T05:36:09;13.15;;;6.82;;
35993;SDS011;22066;54.274;18.578;2023-05-07T05:38:35;12.43;;;6.18;;
35993;SDS011;22066;54.274;18.578;2023-05-07T05:41:01;13.77;;;7.00;;
35993;SDS011;22066;54.274;18.578;2023-05-07T05:43:27;10.23;;;4.80;;
35993;SDS011;22066;54.274;18.578;2023-05-07T05:45:55;8.65;;;4.88;;
35993;SDS011;22066;54.274;18.578;2023-05-07T05:48:21;12.77;;;4.53;;
35993;SDS011;22066;54.274;18.578;2023-05-07T05:50:47;8.20;;;3.83;;
35993;SDS011;22066;54.274;18.578;2023-05-07T05:53:13;8.25;;;4.18;;
35993;SDS011;22066;54.274;18.578;2023-05-07T05:55:40;7.25;;;4.00;;
35993;SDS011;22066;54.274;18.578;2023-05-07T05:58:07;8.82;;;4.05;;
35993;SDS011;22066;54.274;18.578;2023-05-07T06:00:33;7.95;;;4.20;;
35993;SDS011;22066;54.274;18.578;2023-05-07T06:02:59;9.07;;;3.95;;
35993;SDS011;22066;54.274;18.578;2023-05-07T06:05:25;10.48;;;4.18;;
35993;SDS011;22066;54.274;18.578;2023-05-07T06:07:51;7.32;;;3.83;;
35993;SDS011;22066;54.274;18.578;2023-05-07T06:10:17;6.95;;;3.08;;
35993;SDS011;22066;54.274;18.578;2023-05-07T06:12:43;6.55;;;3.15;;
35993;SDS011;22066;54.274;18.578;2023-05-07T06:15:09;5.88;;;3.50;;
35993;SDS011;22066;54.274;18.578;2023-05-07T06:17:35;8.60;;;2.63;;
35993;SDS011;22066;54.274;18.578;2023-05-07T06:20:01;6.40;;;3.10;;
35993;SDS011;22066;54.274;18.578;2023-05-07T06:22:27;8.05;;;2.50;;
35993;SDS011;22066;54.274;18.578;2023-05-07T06:24:53;8.10;;;3.08;;
35993;SDS011;22066;54.274;18.578;2023-05-07T06:27:19;11.77;;;3.38;;
35993;SDS011;22066;54.274;18.578;2023-05-07T06:29:47;6.25;;;3.28;;
35993;SDS011;22066;54.274;18.578;2023-05-07T06:32:13;6.95;;;3.10;;
35993;SDS011;22066;54.274;18.578;2023-05-07T06:34:40;8.98;;;3.08;;
35993;SDS011;22066;54.274;18.578;2023-05-07T06:37:06;4.72;;;2.65;;
35993;SDS011;22066;54.274;18.578;2023-05-07T06:39:32;6.30;;;2.95;;
35993;SDS011;22066;54.274;18.578;2023-05-07T06:41:59;6.68;;;3.00;;
35993;SDS011;22066;54.274;18.578;2023-05-07T06:44:26;4.90;;;2.40;;
35993;SDS011;22066;54.274;18.578;2023-05-07T06:46:52;7.25;;;2.83;;
35993;SDS011;22066;54.274;18.578;2023-05-07T06:49:18;6.38;;;2.55;;
35993;SDS011;22066;54.274;18.578;2023-05-07T06:51:44;6.25;;;2.70;;
35993;SDS011;22066;54.274;18.578;2023-05-07T06:54:10;7.72;;;3.10;;
35993;SDS011;22066;54.274;18.578;2023-05-07T06:56:36;6.90;;;2.90;;
35993;SDS011;22066;54.274;18.578;2023-05-07T06:59:02;5.82;;;2.83;;
35993;SDS011;22066;54.274;18.578;2023-05-07T07:01:29;9.00;;;2.78;;
35993;SDS011;22066;54.274;18.578;2023-05-07T07:03:55;6.32;;;2.95;;
35993;SDS011;22066;54.274;18.578;2023-05-07T07:06:21;8.13;;;2.90;;
35993;SDS011;22066;54.274;18.578;2023-05-07T07:08:47;5.90;;;2.70;;
35993;SDS011;22066;54.274;18.578;2023-05-07T07:11:13;7.30;;;2.83;;
35993;SDS011;22066;54.274;18.578;2023-05-07T07:13:39;6.03;;;2.67;;
35993;SDS011;22066;54.274;18.578;2023-05-07T07:16:05;5.60;;;2.55;;
35993;SDS011;22066;54.274;18.578;2023-05-07T07:18:31;6.85;;;2.70;;
35993;SDS011;22066;54.274;18.578;2023-05-07T07:20:57;5.78;;;2.63;;
35993;SDS011;22066;54.274;18.578;2023-05-07T07:23:24;5.05;;;2.53;;
35993;SDS011;22066;54.274;18.578;2023-05-07T07:25:50;5.65;;;2.65;;
35993;SDS011;22066;54.274;18.578;2023-05-07T07:28:16;5.80;;;2.85;;
35993;SDS011;22066;54.274;18.578;2023-05-07T07:30:42;5.07;;;2.80;;
35993;SDS011;22066;54.274;18.578;2023-05-07T07:33:09;5.63;;;2.30;;
35993;SDS011;22066;54.274;18.578;2023-05-07T07:35:35;5.55;;;2.30;;
35993;SDS011;22066;54.274;18.578;2023-05-07T07:38:01;8.27;;;2.42;;
35993;SDS011;22066;54.274;18.578;2023-05-07T07:40:27;5.35;;;2.20;;
35993;SDS011;22066;54.274;18.578;2023-05-07T07:42:53;5.82;;;2.28;;
35993;SDS011;22066;54.274;18.578;2023-05-07T07:45:20;6.18;;;2.90;;
35993;SDS011;22066;54.274;18.578;2023-05-07T07:47:46;5.75;;;2.45;;
35993;SDS011;22066;54.274;18.578;2023-05-07T07:50:12;8.30;;;2.70;;
35993;SDS011;22066;54.274;18.578;2023-05-07T07:52:38;3.97;;;2.22;;
35993;SDS011;22066;54.274;18.578;2023-05-07T07:55:04;5.03;;;2.17;;
35993;SDS011;22066;54.274;18.578;2023-05-07T07:57:31;7.28;;;2.58;;
35993;SDS011;22066;54.274;18.578;2023-05-07T07:59:57;5.68;;;2.05;;
35993;SDS011;22066;54.274;18.578;2023-05-07T08:02:23;6.75;;;2.08;;
35993;SDS011;22066;54.274;18.578;2023-05-07T08:04:49;4.10;;;1.90;;
35993;SDS011;22066;54.274;18.578;2023-05-07T08:07:15;3.70;;;2.08;;
35993;SDS011;22066;54.274;18.578;2023-05-07T08:09:43;4.35;;;2.13;;
35993;SDS011;22066;54.274;18.578;2023-05-07T08:12:09;4.38;;;2.03;;
35993;SDS011;22066;54.274;18.578;2023-05-07T08:14:35;4.13;;;2.10;;
35993;SDS011;22066;54.274;18.578;2023-05-07T08:17:02;4.40;;;2.45;;
35993;SDS011;22066;54.274;18.578;2023-05-07T08:19:28;4.43;;;2.17;;
35993;SDS011;22066;54.274;18.578;2023-05-07T08:21:54;6.65;;;2.10;;
35993;SDS011;22066;54.274;18.578;2023-05-07T08:24:20;5.47;;;2.10;;
35993;SDS011;22066;54.274;18.578;2023-05-07T08:26:46;5.25;;;2.05;;
35993;SDS011;22066;54.274;18.578;2023-05-07T08:29:12;4.22;;;2.13;;
35993;SDS011;22066;54.274;18.578;2023-05-07T08:31:38;3.53;;;1.67;;
35993;SDS011;22066;54.274;18.578;2023-05-07T08:34:06;4.68;;;1.83;;
35993;SDS011;22066;54.274;18.578;2023-05-07T08:36:32;4.93;;;1.90;;
35993;SDS011;22066;54.274;18.578;2023-05-07T08:38:58;5.15;;;1.85;;
35993;SDS011;22066;54.274;18.578;2023-05-07T08:41:25;5.40;;;2.22;;
35993;SDS011;22066;54.274;18.578;2023-05-07T08:43:51;5.63;;;1.70;;
35993;SDS011;22066;54.274;18.578;2023-05-07T08:46:18;4.85;;;2.30;;
35993;SDS011;22066;54.274;18.578;2023-05-07T08:48:44;6.53;;;2.28;;
35993;SDS011;22066;54.274;18.578;2023-05-07T08:51:15;6.05;;;1.80;;
35993;SDS011;22066;54.274;18.578;2023-05-07T08:53:41;6.40;;;3.40;;
35993;SDS011;22066;54.274;18.578;2023-05-07T08:56:10;5.50;;;2.47;;
35993;SDS011;22066;54.274;18.578;2023-05-07T08:58:37;4.70;;;1.80;;
35993;SDS011;22066;54.274;18.578;2023-05-07T09:01:08;6.13;;;1.83;;
35993;SDS011;22066;54.274;18.578;2023-05-07T09:03:36;4.53;;;1.88;;
35993;SDS011;22066;54.274;18.578;2023-05-07T09:06:03;8.90;;;1.52;;
35993;SDS011;22066;54.274;18.578;2023-05-07T09:08:29;4.03;;;1.90;;
35993;SDS011;22066;54.274;18.578;2023-05-07T09:10:56;5.18;;;1.80;;
35993;SDS011;22066;54.274;18.578;2023-05-07T09:13:22;5.22;;;1.85;;
35993;SDS011;22066;54.274;18.578;2023-05-07T09:15:48;4.38;;;1.67;;
35993;SDS011;22066;54.274;18.578;2023-05-07T09:18:14;3.10;;;1.40;;
35993;SDS011;22066;54.274;18.578;2023-05-07T09:20:43;4.55;;;1.75;;
35993;SDS011;22066;54.274;18.578;2023-05-07T09:23:09;5.78;;;1.52;;
35993;SDS011;22066;54.274;18.578;2023-05-07T09:25:35;3.92;;;1.52;;
35993;SDS011;22066;54.274;18.578;2023-05-07T09:28:05;2.70;;;1.48;;
35993;SDS011;22066;54.274;18.578;2023-05-07T09:30:33;4.07;;;1.90;;
35993;SDS011;22066;54.274;18.578;2023-05-07T09:33:00;4.60;;;2.00;;
35993;SDS011;22066;54.274;18.578;2023-05-07T09:35:27;3.45;;;1.90;;
35993;SDS011;22066;54.274;18.578;2023-05-07T09:37:53;7.20;;;2.13;;
35993;SDS011;22066;54.274;18.578;2023-05-07T09:40:23;5.27;;;2.13;;
35993;SDS011;22066;54.274;18.578;2023-05-07T09:42:50;5.18;;;2.63;;
35993;SDS011;22066;54.274;18.578;2023-05-07T09:45:16;4.50;;;1.88;;
35993;SDS011;22066;54.274;18.578;2023-05-07T09:47:42;3.72;;;2.00;;
35993;SDS011;22066;54.274;18.578;2023-05-07T09:50:12;6.32;;;1.95;;
35993;SDS011;22066;54.274;18.578;2023-05-07T09:52:40;5.65;;;2.08;;
35993;SDS011;22066;54.274;18.578;2023-05-07T09:55:06;4.15;;;1.83;;
35993;SDS011;22066;54.274;18.578;2023-05-07T09:57:34;12.48;;;3.13;;
35993;SDS011;22066;54.274;18.578;2023-05-07T10:00:01;5.70;;;2.15;;
35993;SDS011;22066;54.274;18.578;2023-05-07T10:02:29;4.95;;;1.83;;
35993;SDS011;22066;54.274;18.578;2023-05-07T10:04:56;5.03;;;2.17;;
35993;SDS011;22066;54.274;18.578;2023-05-07T10:07:25;4.57;;;2.20;;
35993;SDS011;22066;54.274;18.578;2023-05-07T10:09:51;7.35;;;2.42;;
35993;SDS011;22066;54.274;18.578;2023-05-07T10:12:17;9.73;;;4.90;;
35993;SDS011;22066;54.274;18.578;2023-05-07T10:14:45;8.15;;;4.03;;
35993;SDS011;22066;54.274;18.578;2023-05-07T10:17:13;10.15;;;5.75;;
35993;SDS011;22066;54.274;18.578;2023-05-07T10:19:39;11.13;;;3.50;;
35993;SDS011;22066;54.274;18.578;2023-05-07T10:22:06;3.97;;;1.95;;
35993;SDS011;22066;54.274;18.578;2023-05-07T10:24:33;7.63;;;2.20;;
35993;SDS011;22066;54.274;18.578;2023-05-07T10:27:00;5.47;;;2.53;;
35993;SDS011;22066;54.274;18.578;2023-05-07T10:29:35;5.88;;;3.38;;
35993;SDS011;22066;54.274;18.578;2023-05-07T10:34:39;13.25;;;5.57;;
35993;SDS011;22066;54.274;18.578;2023-05-07T10:37:06;15.10;;;7.43;;
35993;SDS011;22066;54.274;18.578;2023-05-07T10:39:32;9.73;;;5.97;;
35993;SDS011;22066;54.274;18.578;2023-05-07T10:42:11;18.88;;;2.88;;
35993;SDS011;22066;54.274;18.578;2023-05-07T10:44:37;5.35;;;2.85;;
35993;SDS011;22066;54.274;18.578;2023-05-07T10:49:34;4.90;;;2.42;;
35993;SDS011;22066;54.274;18.578;2023-05-07T10:52:19;8.32;;;4.40;;
35993;SDS011;22066;54.274;18.578;2023-05-07T10:54:46;9.20;;;4.85;;
35993;SDS011;22066;54.274;18.578;2023-05-07T10:59:56;13.05;;;4.32;;
35993;SDS011;22066;54.274;18.578;2023-05-07T11:02:22;12.65;;;3.13;;
35993;SDS011;22066;54.274;18.578;2023-05-07T11:07:33;7.72;;;2.75;;
35993;SDS011;22066;54.274;18.578;2023-05-07T11:09:59;5.55;;;2.00;;
35993;SDS011;22066;54.274;18.578;2023-05-07T11:15:02;4.22;;;1.50;;
35993;SDS011;22066;54.274;18.578;2023-05-07T11:17:28;5.95;;;2.45;;
35993;SDS011;22066;54.274;18.578;2023-05-07T11:19:59;7.00;;;2.22;;
35993;SDS011;22066;54.274;18.578;2023-05-07T11:25:04;12.52;;;5.82;;
35993;SDS011;22066;54.274;18.578;2023-05-07T11:27:31;9.10;;;3.47;;
35993;SDS011;22066;54.274;18.578;2023-05-07T11:29:57;6.75;;;3.20;;
35993;SDS011;22066;54.274;18.578;2023-05-07T11:32:30;4.82;;;1.70;;
35993;SDS011;22066;54.274;18.578;2023-05-07T11:34:57;6.80;;;2.47;;
35993;SDS011;22066;54.274;18.578;2023-05-07T11:37:23;4.32;;;1.90;;
35993;SDS011;22066;54.274;18.578;2023-05-07T11:39:49;7.68;;;2.20;;
35993;SDS011;22066;54.274;18.578;2023-05-07T11:44:55;5.07;;;2.50;;
35993;SDS011;22066;54.274;18.578;2023-05-07T11:47:21;9.10;;;4.05;;
35993;SDS011;22066;54.274;18.578;2023-05-07T11:49:47;8.80;;;2.15;;
35993;SDS011;22066;54.274;18.578;2023-05-07T11:52:14;5.53;;;2.27;;
35993;SDS011;22066;54.274;18.578;2023-05-07T11:54:40;4.15;;;1.90;;
35993;SDS011;22066;54.274;18.578;2023-05-07T11:57:06;6.00;;;1.80;;
35993;SDS011;22066;54.274;18.578;2023-05-07T11:59:39;6.43;;;2.53;;
35993;SDS011;22066;54.274;18.578;2023-05-07T12:02:06;10.82;;;2.80;;
35993;SDS011;22066;54.274;18.578;2023-05-07T12:04:32;5.28;;;2.53;;
35993;SDS011;22066;54.274;18.578;2023-05-07T12:06:58;9.90;;;2.28;;
35993;SDS011;22066;54.274;18.578;2023-05-07T12:09:25;9.40;;;2.55;;
35993;SDS011;22066;54.274;18.578;2023-05-07T12:11:51;9.00;;;2.40;;
35993;SDS011;22066;54.274;18.578;2023-05-07T12:14:18;8.45;;;2.88;;
35993;SDS011;22066;54.274;18.578;2023-05-07T12:16:44;4.45;;;2.22;;
35993;SDS011;22066;54.274;18.578;2023-05-07T12:19:11;3.92;;;2.38;;
35993;SDS011;22066;54.274;18.578;2023-05-07T12:21:37;6.00;;;2.13;;
35993;SDS011;22066;54.274;18.578;2023-05-07T12:24:04;5.22;;;2.60;;
35993;SDS011;22066;54.274;18.578;2023-05-07T12:26:30;6.93;;;2.72;;
35993;SDS011;22066;54.274;18.578;2023-05-07T12:28:57;8.13;;;2.92;;
35993;SDS011;22066;54.274;18.578;2023-05-07T12:31:25;10.20;;;2.55;;
35993;SDS011;22066;54.274;18.578;2023-05-07T12:33:51;5.78;;;2.40;;
35993;SDS011;22066;54.274;18.578;2023-05-07T12:36:18;5.25;;;2.30;;
35993;SDS011;22066;54.274;18.578;2023-05-07T12:38:46;6.78;;;2.58;;
35993;SDS011;22066;54.274;18.578;2023-05-07T12:41:15;4.63;;;2.13;;
35993;SDS011;22066;54.274;18.578;2023-05-07T12:43:43;6.88;;;2.40;;
35993;SDS011;22066;54.274;18.578;2023-05-07T12:46:10;8.43;;;2.47;;
35993;SDS011;22066;54.274;18.578;2023-05-07T12:51:05;13.70;;;5.05;;
35993;SDS011;22066;54.274;18.578;2023-05-07T12:53:32;5.05;;;2.63;;
35993;SDS011;22066;54.274;18.578;2023-05-07T12:55:59;3.88;;;2.00;;
35993;SDS011;22066;54.274;18.578;2023-05-07T12:58:29;6.03;;;2.90;;
35993;SDS011;22066;54.274;18.578;2023-05-07T13:00:56;4.78;;;2.40;;
35993;SDS011;22066;54.274;18.578;2023-05-07T13:03:29;8.52;;;2.30;;
35993;SDS011;22066;54.274;18.578;2023-05-07T13:05:58;4.22;;;2.35;;
35993;SDS011;22066;54.274;18.578;2023-05-07T13:10:51;8.23;;;2.83;;
35993;SDS011;22066;54.274;18.578;2023-05-07T13:13:18;14.00;;;4.82;;
35993;SDS011;22066;54.274;18.578;2023-05-07T13:15:45;4.78;;;2.30;;
35993;SDS011;22066;54.274;18.578;2023-05-07T13:18:11;6.97;;;2.35;;
35993;SDS011;22066;54.274;18.578;2023-05-07T13:20:37;5.78;;;2.33;;
35993;SDS011;22066;54.274;18.578;2023-05-07T13:23:03;9.40;;;2.92;;
35993;SDS011;22066;54.274;18.578;2023-05-07T13:25:30;5.63;;;2.70;;
35993;SDS011;22066;54.274;18.578;2023-05-07T13:27:56;5.80;;;2.55;;
35993;SDS011;22066;54.274;18.578;2023-05-07T13:30:22;5.90;;;2.08;;
35993;SDS011;22066;54.274;18.578;2023-05-07T13:32:48;5.68;;;2.20;;
35993;SDS011;22066;54.274;18.578;2023-05-07T13:35:15;5.40;;;2.40;;
35993;SDS011;22066;54.274;18.578;2023-05-07T13:37:42;7.35;;;2.72;;
35993;SDS011;22066;54.274;18.578;2023-05-07T13:40:08;5.75;;;2.13;;
35993;SDS011;22066;54.274;18.578;2023-05-07T13:42:34;10.90;;;2.67;;
35993;SDS011;22066;54.274;18.578;2023-05-07T13:45:00;7.18;;;2.78;;
35993;SDS011;22066;54.274;18.578;2023-05-07T13:47:29;5.53;;;2.83;;
35993;SDS011;22066;54.274;18.578;2023-05-07T13:49:55;5.75;;;2.50;;
35993;SDS011;22066;54.274;18.578;2023-05-07T13:52:21;7.55;;;2.45;;
35993;SDS011;22066;54.274;18.578;2023-05-07T13:54:47;6.38;;;2.53;;
35993;SDS011;22066;54.274;18.578;2023-05-07T13:57:13;16.45;;;6.05;;
35993;SDS011;22066;54.274;18.578;2023-05-07T13:59:40;6.85;;;2.30;;
35993;SDS011;22066;54.274;18.578;2023-05-07T14:02:06;7.43;;;2.90;;
35993;SDS011;22066;54.274;18.578;2023-05-07T14:04:34;6.13;;;2.42;;
35993;SDS011;22066;54.274;18.578;2023-05-07T14:07:00;3.95;;;2.38;;
35993;SDS011;22066;54.274;18.578;2023-05-07T14:09:26;8.93;;;2.67;;
35993;SDS011;22066;54.274;18.578;2023-05-07T14:11:52;8.27;;;3.05;;
35993;SDS011;22066;54.274;18.578;2023-05-07T14:14:18;6.55;;;3.25;;
35993;SDS011;22066;54.274;18.578;2023-05-07T14:16:44;9.65;;;3.45;;
35993;SDS011;22066;54.274;18.578;2023-05-07T14:19:13;8.23;;;2.30;;
35993;SDS011;22066;54.274;18.578;2023-05-07T14:21:40;5.35;;;2.65;;
35993;SDS011;22066;54.274;18.578;2023-05-07T14:24:06;5.70;;;2.30;;
35993;SDS011;22066;54.274;18.578;2023-05-07T14:26:33;6.78;;;2.50;;
35993;SDS011;22066;54.274;18.578;2023-05-07T14:29:00;6.47;;;3.00;;
35993;SDS011;22066;54.274;18.578;2023-05-07T14:31:26;10.88;;;3.10;;
35993;SDS011;22066;54.274;18.578;2023-05-07T14:33:52;8.35;;;3.35;;
35993;SDS011;22066;54.274;18.578;2023-05-07T14:36:18;6.75;;;3.25;;
35993;SDS011;22066;54.274;18.578;2023-05-07T14:38:49;6.60;;;2.72;;
35993;SDS011;22066;54.274;18.578;2023-05-07T14:41:15;8.00;;;2.97;;
35993;SDS011;22066;54.274;18.578;2023-05-07T14:43:41;11.65;;;3.40;;
35993;SDS011;22066;54.274;18.578;2023-05-07T14:46:07;7.13;;;3.03;;
35993;SDS011;22066;54.274;18.578;2023-05-07T14:48:33;10.02;;;4.05;;
35993;SDS011;22066;54.274;18.578;2023-05-07T14:50:59;9.60;;;3.38;;